sensor_id;sensor_type;location;lat;lon;timestamp;pressure;altitude;pressure_sealevel;temperature;humidity
57801;BME280;43627;42.728;23.256;2023-02-22T00:01:33;94970.56;;;7.52;51.51
57801;BME280;43627;42.728;23.256;2023-02-22T00:04:16;94960.47;;;7.53;51.81
57801;BME280;43627;42.728;23.256;2023-02-22T00:06:47;94941.56;;;7.40;51.63
57801;BME280;43627;42.728;23.256;2023-02-22T00:09:14;94971.19;;;7.56;52.29
57801;BME280;43627;42.728;23.256;2023-02-22T00:11:47;94956.25;;;7.52;51.20
57801;BME280;43627;42.728;23.256;2023-02-22T00:14:14;94960.84;;;7.64;51.43
57801;BME280;43627;42.728;23.256;2023-02-22T00:16:45;94948.47;;;7.63;51.05
57801;BME280;43627;42.728;23.256;2023-02-22T00:19:12;94958.84;;;7.77;50.93
57801;BME280;43627;42.728;23.256;2023-02-22T00:21:39;94938.25;;;7.67;50.79
57801;BME280;43627;42.728;23.256;2023-02-22T00:24:05;94946.63;;;7.82;50.34
57801;BME280;43627;42.728;23.256;2023-02-22T00:26:53;94948.00;;;7.86;50.86
57801;BME280;43627;42.728;23.256;2023-02-22T00:29:23;94954.38;;;7.92;50.24
57801;BME280;43627;42.728;23.256;2023-02-22T00:31:50;94956.84;;;7.99;50.69
57801;BME280;43627;42.728;23.256;2023-02-22T00:34:17;94949.53;;;7.87;51.09
57801;BME280;43627;42.728;23.256;2023-02-22T00:36:48;94921.03;;;7.61;50.66
57801;BME280;43627;42.728;23.256;2023-02-22T00:39:15;94951.25;;;7.72;50.89
57801;BME280;43627;42.728;23.256;2023-02-22T00:41:42;94917.25;;;7.58;51.14
57801;BME280;43627;42.728;23.256;2023-02-22T00:44:09;94941.34;;;7.78;51.55
57801;BME280;43627;42.728;23.256;2023-02-22T00:46:36;94947.78;;;7.71;51.30
57801;BME280;43627;42.728;23.256;2023-02-22T00:49:03;94916.06;;;7.59;52.01
57801;BME280;43627;42.728;23.256;2023-02-22T00:51:30;94936.16;;;7.71;51.35
57801;BME280;43627;42.728;23.256;2023-02-22T00:53:57;94938.28;;;7.76;50.87
57801;BME280;43627;42.728;23.256;2023-02-22T00:56:24;94914.97;;;7.57;51.09
57801;BME280;43627;42.728;23.256;2023-02-22T00:58:50;94912.47;;;7.40;52.06
57801;BME280;43627;42.728;23.256;2023-02-22T01:01:17;94936.94;;;7.50;52.48
57801;BME280;43627;42.728;23.256;2023-02-22T01:03:44;94942.31;;;7.40;52.69
57801;BME280;43627;42.728;23.256;2023-02-22T01:06:11;94935.47;;;7.36;54.03
57801;BME280;43627;42.728;23.256;2023-02-22T01:08:43;94929.44;;;7.32;53.12
57801;BME280;43627;42.728;23.256;2023-02-22T01:11:10;94932.25;;;7.28;53.16
57801;BME280;43627;42.728;23.256;2023-02-22T01:13:37;94919.94;;;7.14;56.18
57801;BME280;43627;42.728;23.256;2023-02-22T01:16:04;94911.63;;;7.09;54.67
57801;BME280;43627;42.728;23.256;2023-02-22T01:18:36;94923.22;;;7.09;54.66
57801;BME280;43627;42.728;23.256;2023-02-22T01:21:03;94930.94;;;7.11;57.46
57801;BME280;43627;42.728;23.256;2023-02-22T01:23:30;94903.34;;;6.91;54.73
57801;BME280;43627;42.728;23.256;2023-02-22T01:25:57;94923.31;;;6.84;54.58
57801;BME280;43627;42.728;23.256;2023-02-22T01:28:24;94925.19;;;6.74;54.76
57801;BME280;43627;42.728;23.256;2023-02-22T01:30:51;94929.94;;;6.70;55.55
57801;BME280;43627;42.728;23.256;2023-02-22T01:33:18;94924.03;;;6.50;55.39
57801;BME280;43627;42.728;23.256;2023-02-22T01:35:44;94932.41;;;6.30;57.99
57801;BME280;43627;42.728;23.256;2023-02-22T01:38:12;94923.94;;;6.15;57.76
57801;BME280;43627;42.728;23.256;2023-02-22T01:40:41;94921.91;;;6.19;57.62
57801;BME280;43627;42.728;23.256;2023-02-22T01:43:29;94925.56;;;6.13;60.85
57801;BME280;43627;42.728;23.256;2023-02-22T01:46:01;94930.34;;;5.96;59.92
57801;BME280;43627;42.728;23.256;2023-02-22T01:53:29;94902.31;;;5.35;63.50
57801;BME280;43627;42.728;23.256;2023-02-22T01:55:58;94902.78;;;5.18;63.33
57801;BME280;43627;42.728;23.256;2023-02-22T01:58:26;94924.75;;;5.20;66.54
57801;BME280;43627;42.728;23.256;2023-02-22T02:00:55;94925.41;;;5.24;65.40
57801;BME280;43627;42.728;23.256;2023-02-22T02:03:27;94906.22;;;5.05;66.09
57801;BME280;43627;42.728;23.256;2023-02-22T02:05:57;94913.72;;;5.14;66.50
57801;BME280;43627;42.728;23.256;2023-02-22T02:11:18;94929.44;;;5.32;64.93
57801;BME280;43627;42.728;23.256;2023-02-22T02:13:46;94908.53;;;5.20;65.12
57801;BME280;43627;42.728;23.256;2023-02-22T02:16:15;94931.03;;;5.29;66.81
57801;BME280;43627;42.728;23.256;2023-02-22T02:18:41;94927.06;;;5.34;68.60
57801;BME280;43627;42.728;23.256;2023-02-22T02:21:37;94931.47;;;5.28;66.89
57801;BME280;43627;42.728;23.256;2023-02-22T02:27:05;94928.34;;;5.29;68.64
57801;BME280;43627;42.728;23.256;2023-02-22T02:35:40;94928.19;;;5.20;76.32
57801;BME280;43627;42.728;23.256;2023-02-22T02:38:31;94940.66;;;5.01;68.45
57801;BME280;43627;42.728;23.256;2023-02-22T02:41:09;94942.69;;;5.13;68.31
57801;BME280;43627;42.728;23.256;2023-02-22T02:43:50;94937.31;;;4.97;67.02
57801;BME280;43627;42.728;23.256;2023-02-22T02:46:28;94899.03;;;4.70;68.98
57801;BME280;43627;42.728;23.256;2023-02-22T02:49:01;94942.13;;;4.90;71.05
57801;BME280;43627;42.728;23.256;2023-02-22T02:51:36;94895.09;;;4.58;70.75
57801;BME280;43627;42.728;23.256;2023-02-22T02:54:05;94940.56;;;4.76;68.81
57801;BME280;43627;42.728;23.256;2023-02-22T02:56:33;94946.25;;;4.65;68.84
57801;BME280;43627;42.728;23.256;2023-02-22T02:59:00;94924.97;;;4.35;70.33
57801;BME280;43627;42.728;23.256;2023-02-22T03:02:09;94945.13;;;4.30;72.37
57801;BME280;43627;42.728;23.256;2023-02-22T03:13:34;94938.97;;;4.13;76.47
57801;BME280;43627;42.728;23.256;2023-02-22T03:16:15;94922.41;;;3.95;77.20
57801;BME280;43627;42.728;23.256;2023-02-22T03:19:01;94944.69;;;4.15;78.65
57801;BME280;43627;42.728;23.256;2023-02-22T03:21:52;94914.25;;;3.98;79.34
57801;BME280;43627;42.728;23.256;2023-02-22T03:24:26;94917.63;;;4.03;78.78
57801;BME280;43627;42.728;23.256;2023-02-22T03:26:59;94939.22;;;4.19;80.85
57801;BME280;43627;42.728;23.256;2023-02-22T03:29:30;94911.91;;;4.00;82.49
57801;BME280;43627;42.728;23.256;2023-02-22T03:32:04;94943.78;;;4.22;82.87
57801;BME280;43627;42.728;23.256;2023-02-22T03:34:35;94927.41;;;4.13;84.73
57801;BME280;43627;42.728;23.256;2023-02-22T03:37:19;94924.03;;;4.09;82.83
57801;BME280;43627;42.728;23.256;2023-02-22T03:39:50;94939.47;;;4.08;83.94
57801;BME280;43627;42.728;23.256;2023-02-22T03:42:31;94947.16;;;4.26;83.09
57801;BME280;43627;42.728;23.256;2023-02-22T03:45:02;94933.31;;;4.08;82.58
57801;BME280;43627;42.728;23.256;2023-02-22T03:47:38;94946.91;;;4.20;80.71
57801;BME280;43627;42.728;23.256;2023-02-22T03:50:12;94928.94;;;4.14;81.74
57801;BME280;43627;42.728;23.256;2023-02-22T03:52:41;94948.69;;;4.27;89.32
57801;BME280;43627;42.728;23.256;2023-02-22T03:55:10;94949.84;;;4.26;87.16
57801;BME280;43627;42.728;23.256;2023-02-22T03:57:40;94944.13;;;4.24;86.22
57801;BME280;43627;42.728;23.256;2023-02-22T04:00:12;94952.06;;;4.31;87.66
57801;BME280;43627;42.728;23.256;2023-02-22T04:02:40;94942.59;;;4.23;84.65
57801;BME280;43627;42.728;23.256;2023-02-22T04:05:07;94952.91;;;4.28;84.88
57801;BME280;43627;42.728;23.256;2023-02-22T04:07:34;94941.50;;;4.20;83.12
57801;BME280;43627;42.728;23.256;2023-02-22T04:10:02;94951.56;;;4.36;89.26
57801;BME280;43627;42.728;23.256;2023-02-22T04:12:29;94945.22;;;4.26;82.60
57801;BME280;43627;42.728;23.256;2023-02-22T04:14:55;94935.69;;;4.22;80.67
57801;BME280;43627;42.728;23.256;2023-02-22T04:17:22;94945.72;;;4.21;79.17
57801;BME280;43627;42.728;23.256;2023-02-22T04:19:48;94932.16;;;4.09;78.86
57801;BME280;43627;42.728;23.256;2023-02-22T04:22:16;94956.34;;;4.12;79.44
57801;BME280;43627;42.728;23.256;2023-02-22T04:24:42;94960.38;;;4.04;78.76
57801;BME280;43627;42.728;23.256;2023-02-22T04:27:09;94949.81;;;3.93;81.86
57801;BME280;43627;42.728;23.256;2023-02-22T04:29:36;94949.72;;;3.81;84.40
57801;BME280;43627;42.728;23.256;2023-02-22T04:32:03;94950.94;;;3.76;83.03
57801;BME280;43627;42.728;23.256;2023-02-22T04:34:29;94950.28;;;3.72;79.93
57801;BME280;43627;42.728;23.256;2023-02-22T04:36:56;94931.78;;;3.54;86.06
57801;BME280;43627;42.728;23.256;2023-02-22T04:39:23;94955.28;;;3.54;95.76
57801;BME280;43627;42.728;23.256;2023-02-22T04:41:49;94876.88;;;2.89;95.82
57801;BME280;43627;42.728;23.256;2023-02-22T04:44:16;94947.75;;;3.45;90.84
57801;BME280;43627;42.728;23.256;2023-02-22T04:46:43;94957.97;;;3.34;92.16
57801;BME280;43627;42.728;23.256;2023-02-22T04:49:12;94944.09;;;3.15;89.34
57801;BME280;43627;42.728;23.256;2023-02-22T04:51:38;94957.47;;;3.19;88.78
57801;BME280;43627;42.728;23.256;2023-02-22T04:54:07;94952.59;;;3.14;90.13
57801;BME280;43627;42.728;23.256;2023-02-22T04:56:33;94960.28;;;3.12;100.00
57801;BME280;43627;42.728;23.256;2023-02-22T04:59:00;94947.31;;;3.07;100.00
57801;BME280;43627;42.728;23.256;2023-02-22T05:01:31;94958.78;;;3.11;97.49
57801;BME280;43627;42.728;23.256;2023-02-22T05:04:01;94964.72;;;3.02;97.17
57801;BME280;43627;42.728;23.256;2023-02-22T05:06:28;94956.06;;;2.91;100.00
57801;BME280;43627;42.728;23.256;2023-02-22T05:08:54;94937.13;;;2.75;97.75
57801;BME280;43627;42.728;23.256;2023-02-22T05:11:21;94968.53;;;3.05;99.39
57801;BME280;43627;42.728;23.256;2023-02-22T05:13:48;94966.38;;;2.96;97.05
57801;BME280;43627;42.728;23.256;2023-02-22T05:16:15;94951.78;;;2.94;94.79
57801;BME280;43627;42.728;23.256;2023-02-22T05:18:42;94952.56;;;2.94;96.26
57801;BME280;43627;42.728;23.256;2023-02-22T05:21:09;94978.34;;;3.15;100.00
57801;BME280;43627;42.728;23.256;2023-02-22T05:23:36;94975.03;;;3.27;100.00
57801;BME280;43627;42.728;23.256;2023-02-22T05:26:02;94962.66;;;3.30;100.00
57801;BME280;43627;42.728;23.256;2023-02-22T05:28:29;94975.88;;;3.24;97.87
57801;BME280;43627;42.728;23.256;2023-02-22T05:30:56;94976.13;;;3.50;100.00
57801;BME280;43627;42.728;23.256;2023-02-22T05:33:22;94963.69;;;3.56;100.00
57801;BME280;43627;42.728;23.256;2023-02-22T05:35:49;94958.66;;;3.58;100.00
57801;BME280;43627;42.728;23.256;2023-02-22T05:38:16;94985.88;;;4.19;94.60
57801;BME280;43627;42.728;23.256;2023-02-22T05:40:43;94976.41;;;4.93;95.62
57801;BME280;43627;42.728;23.256;2023-02-22T05:43:09;94968.81;;;5.74;75.31
57801;BME280;43627;42.728;23.256;2023-02-22T05:45:36;94990.97;;;6.62;66.75
57801;BME280;43627;42.728;23.256;2023-02-22T05:48:03;94985.09;;;7.58;61.63
57801;BME280;43627;42.728;23.256;2023-02-22T05:50:29;94997.25;;;8.28;60.62
57801;BME280;43627;42.728;23.256;2023-02-22T05:52:58;94997.59;;;8.71;53.13
57801;BME280;43627;42.728;23.256;2023-02-22T05:55:25;94998.72;;;8.82;52.65
57801;BME280;43627;42.728;23.256;2023-02-22T05:57:52;94999.94;;;9.00;51.65
57801;BME280;43627;42.728;23.256;2023-02-22T06:00:24;95010.75;;;9.58;51.11
57801;BME280;43627;42.728;23.256;2023-02-22T06:03:06;94996.00;;;10.11;49.24
57801;BME280;43627;42.728;23.256;2023-02-22T06:05:34;94964.16;;;10.68;47.82
57801;BME280;43627;42.728;23.256;2023-02-22T06:08:01;94998.22;;;11.06;47.42
57801;BME280;43627;42.728;23.256;2023-02-22T06:10:28;95008.66;;;10.41;45.52
57801;BME280;43627;42.728;23.256;2023-02-22T06:12:56;95003.91;;;9.90;47.86
57801;BME280;43627;42.728;23.256;2023-02-22T06:15:23;95016.56;;;10.12;46.26
57801;BME280;43627;42.728;23.256;2023-02-22T06:17:51;95006.56;;;10.36;45.62
57801;BME280;43627;42.728;23.256;2023-02-22T06:20:21;94997.78;;;10.14;45.64
57801;BME280;43627;42.728;23.256;2023-02-22T06:22:52;94996.63;;;9.96;45.65
57801;BME280;43627;42.728;23.256;2023-02-22T06:25:21;95004.84;;;9.41;47.03
57801;BME280;43627;42.728;23.256;2023-02-22T06:27:49;95011.72;;;8.97;48.26
57801;BME280;43627;42.728;23.256;2023-02-22T06:30:18;95001.53;;;8.08;50.34
57801;BME280;43627;42.728;23.256;2023-02-22T06:32:45;94996.09;;;7.86;51.21
57801;BME280;43627;42.728;23.256;2023-02-22T06:35:13;94998.84;;;8.39;51.38
57801;BME280;43627;42.728;23.256;2023-02-22T06:37:40;95015.63;;;8.86;53.39
57801;BME280;43627;42.728;23.256;2023-02-22T06:40:08;95019.91;;;9.15;49.23
57801;BME280;43627;42.728;23.256;2023-02-22T06:42:37;95028.50;;;8.95;49.31
57801;BME280;43627;42.728;23.256;2023-02-22T06:45:04;95004.47;;;8.44;50.08
57801;BME280;43627;42.728;23.256;2023-02-22T06:47:31;95035.22;;;7.88;51.57
57801;BME280;43627;42.728;23.256;2023-02-22T06:49:58;94989.97;;;7.29;52.64
57801;BME280;43627;42.728;23.256;2023-02-22T06:52:26;95029.66;;;7.35;54.70
57801;BME280;43627;42.728;23.256;2023-02-22T06:54:53;95024.91;;;7.27;56.76
57801;BME280;43627;42.728;23.256;2023-02-22T06:57:19;95025.94;;;7.42;55.22
57801;BME280;43627;42.728;23.256;2023-02-22T06:59:46;95003.88;;;7.31;55.49
57801;BME280;43627;42.728;23.256;2023-02-22T07:02:13;95013.66;;;7.72;57.39
57801;BME280;43627;42.728;23.256;2023-02-22T07:04:40;95012.84;;;8.06;55.17
57801;BME280;43627;42.728;23.256;2023-02-22T07:07:09;95010.19;;;8.15;52.93
57801;BME280;43627;42.728;23.256;2023-02-22T07:09:36;95024.72;;;8.30;51.87
57801;BME280;43627;42.728;23.256;2023-02-22T07:12:02;95022.13;;;8.49;51.87
57801;BME280;43627;42.728;23.256;2023-02-22T07:14:29;95016.28;;;8.59;50.56
57801;BME280;43627;42.728;23.256;2023-02-22T07:16:56;95020.63;;;8.48;50.67
57801;BME280;43627;42.728;23.256;2023-02-22T07:19:22;95012.72;;;8.81;50.41
57801;BME280;43627;42.728;23.256;2023-02-22T07:21:50;94984.47;;;8.78;51.56
57801;BME280;43627;42.728;23.256;2023-02-22T07:24:22;95009.75;;;8.97;50.35
57801;BME280;43627;42.728;23.256;2023-02-22T07:26:48;95008.47;;;9.29;49.90
57801;BME280;43627;42.728;23.256;2023-02-22T07:29:15;95005.28;;;9.95;48.30
57801;BME280;43627;42.728;23.256;2023-02-22T07:31:42;95002.50;;;10.22;48.71
57801;BME280;43627;42.728;23.256;2023-02-22T07:34:08;95004.56;;;10.79;46.68
57801;BME280;43627;42.728;23.256;2023-02-22T07:36:35;94995.06;;;10.32;46.87
57801;BME280;43627;42.728;23.256;2023-02-22T07:39:02;95007.84;;;9.62;48.51
57801;BME280;43627;42.728;23.256;2023-02-22T07:41:28;94993.78;;;9.63;48.37
57801;BME280;43627;42.728;23.256;2023-02-22T07:43:55;94991.34;;;9.93;47.98
57801;BME280;43627;42.728;23.256;2023-02-22T07:46:22;94978.94;;;9.92;47.63
57801;BME280;43627;42.728;23.256;2023-02-22T07:48:48;95004.97;;;9.65;48.48
57801;BME280;43627;42.728;23.256;2023-02-22T07:51:16;95000.88;;;9.88;49.25
57801;BME280;43627;42.728;23.256;2023-02-22T07:53:43;95001.75;;;10.03;48.18
57801;BME280;43627;42.728;23.256;2023-02-22T07:56:10;95002.63;;;10.19;48.08
57801;BME280;43627;42.728;23.256;2023-02-22T07:58:37;94994.75;;;10.21;47.20
57801;BME280;43627;42.728;23.256;2023-02-22T08:01:04;94990.09;;;10.12;48.02
57801;BME280;43627;42.728;23.256;2023-02-22T08:03:32;94987.94;;;10.35;47.41
57801;BME280;43627;42.728;23.256;2023-02-22T08:06:04;94998.09;;;10.34;47.54
57801;BME280;43627;42.728;23.256;2023-02-22T08:08:31;94991.72;;;10.37;47.10
57801;BME280;43627;42.728;23.256;2023-02-22T08:10:58;94991.84;;;10.43;47.20
57801;BME280;43627;42.728;23.256;2023-02-22T08:13:25;94961.88;;;10.43;47.24
57801;BME280;43627;42.728;23.256;2023-02-22T08:15:52;94995.34;;;10.76;48.11
57801;BME280;43627;42.728;23.256;2023-02-22T08:18:20;94996.63;;;10.57;46.86
57801;BME280;43627;42.728;23.256;2023-02-22T08:20:49;94990.31;;;10.84;46.27
57801;BME280;43627;42.728;23.256;2023-02-22T08:23:19;94989.44;;;11.02;46.24
57801;BME280;43627;42.728;23.256;2023-02-22T08:25:46;94962.69;;;10.91;46.16
57801;BME280;43627;42.728;23.256;2023-02-22T08:28:15;94969.25;;;10.84;46.47
57801;BME280;43627;42.728;23.256;2023-02-22T08:30:42;94969.00;;;11.21;46.92
57801;BME280;43627;42.728;23.256;2023-02-22T08:33:10;94968.88;;;11.39;46.44
57801;BME280;43627;42.728;23.256;2023-02-22T08:35:40;94980.44;;;11.73;45.96
57801;BME280;43627;42.728;23.256;2023-02-22T08:38:07;94967.34;;;11.77;45.02
57801;BME280;43627;42.728;23.256;2023-02-22T08:40:40;94982.56;;;12.37;44.17
57801;BME280;43627;42.728;23.256;2023-02-22T08:43:06;94972.94;;;12.12;43.85
57801;BME280;43627;42.728;23.256;2023-02-22T08:45:33;94970.22;;;12.42;43.79
57801;BME280;43627;42.728;23.256;2023-02-22T08:48:00;94970.63;;;12.70;42.90
57801;BME280;43627;42.728;23.256;2023-02-22T08:50:29;94953.41;;;12.84;42.77
57801;BME280;43627;42.728;23.256;2023-02-22T08:52:58;94976.53;;;13.18;42.37
57801;BME280;43627;42.728;23.256;2023-02-22T08:55:29;94979.28;;;13.38;41.97
57801;BME280;43627;42.728;23.256;2023-02-22T08:57:58;94961.81;;;13.56;41.36
57801;BME280;43627;42.728;23.256;2023-02-22T09:00:27;94958.94;;;13.91;40.89
57801;BME280;43627;42.728;23.256;2023-02-22T09:02:56;94968.41;;;14.16;40.63
57801;BME280;43627;42.728;23.256;2023-02-22T09:05:22;94969.78;;;14.32;40.87
57801;BME280;43627;42.728;23.256;2023-02-22T09:07:49;94937.66;;;14.07;40.63
57801;BME280;43627;42.728;23.256;2023-02-22T09:10:19;94972.69;;;14.23;41.30
57801;BME280;43627;42.728;23.256;2023-02-22T09:12:46;94940.56;;;14.29;41.38
57801;BME280;43627;42.728;23.256;2023-02-22T09:15:14;94957.41;;;14.42;41.44
57801;BME280;43627;42.728;23.256;2023-02-22T09:17:40;94965.38;;;14.40;41.35
57801;BME280;43627;42.728;23.256;2023-02-22T09:20:07;94953.03;;;14.56;40.76
57801;BME280;43627;42.728;23.256;2023-02-22T09:22:35;94961.44;;;14.47;41.06
57801;BME280;43627;42.728;23.256;2023-02-22T09:25:02;94949.53;;;14.55;41.47
57801;BME280;43627;42.728;23.256;2023-02-22T09:27:41;94934.88;;;14.64;41.19
57801;BME280;43627;42.728;23.256;2023-02-22T09:30:32;94944.09;;;15.04;40.73
57801;BME280;43627;42.728;23.256;2023-02-22T09:33:11;94941.94;;;15.19;39.90
57801;BME280;43627;42.728;23.256;2023-02-22T09:35:39;94879.84;;;14.42;40.65
57801;BME280;43627;42.728;23.256;2023-02-22T09:38:14;94932.25;;;14.81;40.66
57801;BME280;43627;42.728;23.256;2023-02-22T09:40:51;94945.16;;;15.18;40.76
57801;BME280;43627;42.728;23.256;2023-02-22T09:48:54;94938.50;;;15.41;39.20
57801;BME280;43627;42.728;23.256;2023-02-22T09:51:26;94935.28;;;15.42;39.82
57801;BME280;43627;42.728;23.256;2023-02-22T09:53:57;94925.09;;;15.60;38.87
57801;BME280;43627;42.728;23.256;2023-02-22T09:56:26;94921.59;;;15.59;39.26
57801;BME280;43627;42.728;23.256;2023-02-22T09:58:59;94891.81;;;15.41;39.17
57801;BME280;43627;42.728;23.256;2023-02-22T10:07:12;94920.19;;;15.97;38.36
57801;BME280;43627;42.728;23.256;2023-02-22T10:09:41;94915.41;;;15.70;39.02
57801;BME280;43627;42.728;23.256;2023-02-22T10:26:40;94878.19;;;16.08;38.71
57801;BME280;43627;42.728;23.256;2023-02-22T10:31:43;94865.91;;;16.60;37.17
57801;BME280;43627;42.728;23.256;2023-02-22T10:34:15;94864.34;;;16.87;36.64
57801;BME280;43627;42.728;23.256;2023-02-22T10:36:44;94868.41;;;16.69;36.69
57801;BME280;43627;42.728;23.256;2023-02-22T10:39:33;94850.09;;;16.77;36.28
57801;BME280;43627;42.728;23.256;2023-02-22T10:42:03;94839.06;;;16.88;36.04
57801;BME280;43627;42.728;23.256;2023-02-22T10:44:38;94858.34;;;16.82;36.13
57801;BME280;43627;42.728;23.256;2023-02-22T10:47:08;94843.34;;;16.83;36.23
57801;BME280;43627;42.728;23.256;2023-02-22T10:49:40;94848.69;;;17.23;35.80
57801;BME280;43627;42.728;23.256;2023-02-22T10:52:28;94843.81;;;17.46;35.86
57801;BME280;43627;42.728;23.256;2023-02-22T10:54:57;94833.00;;;17.53;35.87
57801;BME280;43627;42.728;23.256;2023-02-22T10:57:41;94837.56;;;17.39;35.91
57801;BME280;43627;42.728;23.256;2023-02-22T11:00:20;94826.09;;;17.30;35.79
57801;BME280;43627;42.728;23.256;2023-02-22T11:02:53;94821.31;;;17.36;34.84
57801;BME280;43627;42.728;23.256;2023-02-22T11:05:36;94814.41;;;17.59;33.84
57801;BME280;43627;42.728;23.256;2023-02-22T11:10:40;94809.25;;;17.80;34.08
57801;BME280;43627;42.728;23.256;2023-02-22T11:13:32;94816.47;;;17.53;32.70
57801;BME280;43627;42.728;23.256;2023-02-22T11:16:16;94813.75;;;17.42;33.64
57801;BME280;43627;42.728;23.256;2023-02-22T11:18:45;94805.03;;;17.38;32.44
57801;BME280;43627;42.728;23.256;2023-02-22T11:21:20;94804.66;;;17.53;32.56
57801;BME280;43627;42.728;23.256;2023-02-22T11:23:48;94810.22;;;17.47;33.30
57801;BME280;43627;42.728;23.256;2023-02-22T11:26:17;94795.53;;;17.75;32.36
57801;BME280;43627;42.728;23.256;2023-02-22T11:28:51;94786.88;;;17.54;32.84
57801;BME280;43627;42.728;23.256;2023-02-22T11:31:30;94761.38;;;17.42;33.05
57801;BME280;43627;42.728;23.256;2023-02-22T11:34:02;94778.09;;;17.14;33.34
57801;BME280;43627;42.728;23.256;2023-02-22T11:36:36;94786.25;;;17.36;34.55
57801;BME280;43627;42.728;23.256;2023-02-22T11:39:21;94786.19;;;17.83;32.71
57801;BME280;43627;42.728;23.256;2023-02-22T11:41:47;94786.72;;;18.06;32.54
57801;BME280;43627;42.728;23.256;2023-02-22T11:44:29;94761.97;;;17.65;32.76
57801;BME280;43627;42.728;23.256;2023-02-22T11:46:59;94768.47;;;17.73;33.25
57801;BME280;43627;42.728;23.256;2023-02-22T11:49:36;94757.06;;;17.88;32.38
57801;BME280;43627;42.728;23.256;2023-02-22T11:52:23;94763.94;;;17.76;31.69
57801;BME280;43627;42.728;23.256;2023-02-22T12:03:05;94735.94;;;17.60;31.50
57801;BME280;43627;42.728;23.256;2023-02-22T12:08:12;94757.06;;;17.88;31.37
57801;BME280;43627;42.728;23.256;2023-02-22T12:16:44;94754.19;;;17.99;31.18
57801;BME280;43627;42.728;23.256;2023-02-22T12:21:53;94733.13;;;17.72;31.12
57801;BME280;43627;42.728;23.256;2023-02-22T12:24:26;94741.41;;;17.66;31.30
57801;BME280;43627;42.728;23.256;2023-02-22T12:27:00;94737.53;;;17.86;31.04
57801;BME280;43627;42.728;23.256;2023-02-22T12:32:09;94736.16;;;18.22;31.12
57801;BME280;43627;42.728;23.256;2023-02-22T12:45:42;94716.66;;;17.60;32.18
57801;BME280;43627;42.728;23.256;2023-02-22T12:48:20;94724.88;;;17.66;32.19
57801;BME280;43627;42.728;23.256;2023-02-22T12:53:52;94711.09;;;17.96;31.00
57801;BME280;43627;42.728;23.256;2023-02-22T12:56:29;94718.28;;;18.29;30.11
57801;BME280;43627;42.728;23.256;2023-02-22T12:59:07;94713.72;;;18.07;30.87
57801;BME280;43627;42.728;23.256;2023-02-22T13:01:40;94702.59;;;17.94;31.36
57801;BME280;43627;42.728;23.256;2023-02-22T13:04:09;94712.31;;;18.01;31.49
57801;BME280;43627;42.728;23.256;2023-02-22T13:07:00;94713.25;;;18.27;31.17
57801;BME280;43627;42.728;23.256;2023-02-22T13:12:32;94727.19;;;17.92;30.79
57801;BME280;43627;42.728;23.256;2023-02-22T13:18:21;94696.25;;;18.23;30.58
57801;BME280;43627;42.728;23.256;2023-02-22T13:21:23;94698.72;;;18.27;30.76
57801;BME280;43627;42.728;23.256;2023-02-22T13:23:55;94706.22;;;18.08;31.15
57801;BME280;43627;42.728;23.256;2023-02-22T13:32:05;94704.88;;;18.14;31.07
57801;BME280;43627;42.728;23.256;2023-02-22T13:35:30;94696.72;;;18.27;31.39
57801;BME280;43627;42.728;23.256;2023-02-22T13:54:06;94687.28;;;18.42;30.43
57801;BME280;43627;42.728;23.256;2023-02-22T13:56:34;94699.47;;;18.27;30.71
57801;BME280;43627;42.728;23.256;2023-02-22T13:59:03;94693.41;;;18.10;30.88
57801;BME280;43627;42.728;23.256;2023-02-22T14:01:47;94689.53;;;17.94;31.20
57801;BME280;43627;42.728;23.256;2023-02-22T14:04:40;94697.06;;;17.94;31.10
57801;BME280;43627;42.728;23.256;2023-02-22T14:09:55;94693.09;;;17.89;30.52
57801;BME280;43627;42.728;23.256;2023-02-22T14:17:58;94698.88;;;17.91;31.78
57801;BME280;43627;42.728;23.256;2023-02-22T14:26:30;94709.06;;;17.72;31.63
57801;BME280;43627;42.728;23.256;2023-02-22T14:29:19;94701.03;;;17.68;31.19
57801;BME280;43627;42.728;23.256;2023-02-22T14:34:16;94695.19;;;17.83;30.14
57801;BME280;43627;42.728;23.256;2023-02-22T14:36:51;94694.84;;;17.92;29.87
57801;BME280;43627;42.728;23.256;2023-02-22T14:44:39;94688.41;;;17.84;31.09
57801;BME280;43627;42.728;23.256;2023-02-22T14:47:15;94676.84;;;17.56;31.95
57801;BME280;43627;42.728;23.256;2023-02-22T14:49:46;94675.81;;;17.29;33.04
57801;BME280;43627;42.728;23.256;2023-02-22T14:52:22;94676.59;;;17.24;33.59
57801;BME280;43627;42.728;23.256;2023-02-22T14:55:15;94694.59;;;17.30;34.11
57801;BME280;43627;42.728;23.256;2023-02-22T15:00:20;94693.19;;;17.12;34.82
57801;BME280;43627;42.728;23.256;2023-02-22T15:02:50;94672.03;;;16.96;34.52
57801;BME280;43627;42.728;23.256;2023-02-22T15:05:22;94687.50;;;17.05;35.15
57801;BME280;43627;42.728;23.256;2023-02-22T15:07:54;94699.25;;;17.05;35.37
57801;BME280;43627;42.728;23.256;2023-02-22T15:10:30;94673.56;;;16.92;35.31
57801;BME280;43627;42.728;23.256;2023-02-22T15:13:05;94694.47;;;17.11;35.30
57801;BME280;43627;42.728;23.256;2023-02-22T15:15:41;94687.63;;;16.88;35.53
57801;BME280;43627;42.728;23.256;2023-02-22T15:18:40;94697.16;;;16.81;35.92
57801;BME280;43627;42.728;23.256;2023-02-22T15:21:13;94693.34;;;16.90;36.08
57801;BME280;43627;42.728;23.256;2023-02-22T15:23:53;94698.13;;;16.90;36.06
57801;BME280;43627;42.728;23.256;2023-02-22T15:26:32;94680.72;;;16.70;36.33
57801;BME280;43627;42.728;23.256;2023-02-22T15:29:15;94701.94;;;16.75;36.33
57801;BME280;43627;42.728;23.256;2023-02-22T15:31:43;94705.47;;;16.70;36.46
57801;BME280;43627;42.728;23.256;2023-02-22T15:36:41;94676.06;;;16.37;36.94
57801;BME280;43627;42.728;23.256;2023-02-22T15:39:20;94685.66;;;16.14;37.36
57801;BME280;43627;42.728;23.256;2023-02-22T15:42:12;94685.41;;;16.17;37.42
57801;BME280;43627;42.728;23.256;2023-02-22T15:44:46;94694.72;;;16.03;37.86